Time;durP1;ratioP1;P1;durP2;ratioP2;P2;SDS_P1;SDS_P2;PMS_P1;PMS_P2;Temp;Humidity;BMP_temperature;BMP_pressure;BME280_temperature;BME280_humidity;BME280_pressure;Samples;Min_cycle;Max_cycle;Signal;HPM_P1;HPM_P2
2024/04/22 00:02:15;;;;;;;5.87;4.33;;;;;;;7.31;100.00;100860.94;5478949;26;20393;-80
2024/04/22 00:04:41;;;;;;;5.13;4.60;;;;;;;7.29;100.00;100865.72;5497080;26;20347;-81
2024/04/22 00:07:06;;;;;;;4.93;4.53;;;;;;;7.27;100.00;100856.22;5499247;26;20307;-81
2024/04/22 00:09:31;;;;;;;6.20;4.80;;;;;;;7.25;100.00;100853.72;5494067;25;20380;-81
2024/04/22 00:11:56;;;;;;;5.20;4.77;;;;;;;7.29;100.00;100859.50;5497012;26;20306;-81
2024/04/22 00:14:22;;;;;;;5.13;4.63;;;;;;;7.28;100.00;100847.06;5497031;26;20817;-81
2024/04/22 00:16:47;;;;;;;6.10;5.30;;;;;;;7.28;100.00;100849.75;5484529;26;20337;-81
2024/04/22 00:19:12;;;;;;;6.27;5.03;;;;;;;7.29;100.00;100846.88;5503126;25;20360;-81
2024/04/22 00:21:38;;;;;;;4.80;4.40;;;;;;;7.27;100.00;100842.72;5497806;26;20302;-81
2024/04/22 00:24:03;;;;;;;4.67;4.37;;;;;;;7.26;100.00;100841.06;5496562;26;20424;-81
2024/04/22 00:26:29;;;;;;;4.65;4.32;;;;;;;7.25;100.00;100839.41;5496758;26;20680;-81
2024/04/22 00:28:54;;;;;;;5.28;4.78;;;;;;;7.24;100.00;100848.56;5501489;26;20319;-81
2024/04/22 00:31:19;;;;;;;5.27;4.77;;;;;;;7.24;100.00;100848.56;5498956;25;20348;-81
2024/04/22 00:33:44;;;;;;;5.50;4.53;;;;;;;7.23;100.00;100845.03;5492827;26;20351;-81
2024/04/22 00:36:10;;;;;;;5.03;4.53;;;;;;;7.19;100.00;100851.88;5496956;26;20363;-81
2024/04/22 00:38:35;;;;;;;5.10;4.70;;;;;;;7.18;100.00;100846.69;5499136;26;20378;-81
2024/04/22 00:41:00;;;;;;;5.57;4.63;;;;;;;7.20;100.00;100847.31;5500889;25;20358;-81
2024/04/22 00:43:25;;;;;;;4.63;4.32;;;;;;;7.18;100.00;100847.53;5495964;26;20428;-81
2024/04/22 00:45:51;;;;;;;4.70;4.30;;;;;;;7.17;100.00;100847.75;5496495;26;20404;-81
2024/04/22 00:48:19;;;;;;;4.53;4.13;;;;;;;7.17;100.00;100845.06;5492926;26;20816;-81
2024/04/22 00:50:46;;;;;;;4.50;4.10;;;;;;;7.19;100.00;100851.03;5499142;25;20711;-81
2024/04/22 00:53:14;;;;;;;4.30;4.00;;;;;;;7.18;100.00;100850.22;5474957;26;20349;-81
2024/04/22 00:55:40;;;;;;;4.28;3.88;;;;;;;7.17;100.00;100851.28;5486795;26;20330;-81
2024/04/22 00:58:07;;;;;;;4.93;4.53;;;;;;;7.16;100.00;100854.16;5494540;26;20809;-81
2024/04/22 01:00:34;;;;;;;4.38;4.07;;;;;;;7.13;100.00;100852.72;5503073;25;20421;-81
2024/04/22 01:03:01;;;;;;;4.32;3.92;;;;;;;7.14;100.00;100853.56;5496328;25;20314;-81
2024/04/22 01:05:26;;;;;;;4.70;4.40;;;;;;;7.12;100.00;100851.06;5494482;26;20322;-81
2024/04/22 01:07:52;;;;;;;5.27;4.10;;;;;;;7.13;100.00;100851.91;5474667;26;20359;-81
2024/04/22 01:10:17;;;;;;;4.75;4.32;;;;;;;7.11;100.00;100844.00;5501378;26;20838;-81
2024/04/22 01:12:42;;;;;;;4.77;4.37;;;;;;;7.09;100.00;100842.59;5497991;25;20347;-81
2024/04/22 01:15:08;;;;;;;5.07;4.67;;;;;;;7.09;100.00;100851.50;5495644;26;20315;-81
2024/04/22 01:17:44;;;;;;;4.93;4.53;;;;;;;7.09;100.00;100851.50;5495968;26;20318;-81
2024/04/22 01:20:11;;;;;;;4.90;4.50;;;;;;;7.07;100.00;100848.19;5471978;26;20367;-81
2024/04/22 01:25:59;;;;;;;5.50;4.40;;;;;;;7.06;100.00;100843.00;5492244;26;20331;-81
2024/04/22 01:28:25;;;;;;;4.60;4.30;;;;;;;7.02;100.00;100844.47;5490047;26;20375;-81
2024/04/22 01:30:50;;;;;;;4.20;3.90;;;;;;;7.03;100.00;100841.56;5487428;26;20487;-81
2024/04/22 01:33:15;;;;;;;6.10;4.13;;;;;;;7.06;100.00;100843.84;5488386;26;20408;-81
2024/04/22 01:35:41;;;;;;;4.33;4.00;;;;;;;7.07;100.00;100842.81;5488140;26;20315;-81
2024/04/22 01:38:06;;;;;;;5.03;4.57;;;;;;;7.05;100.00;100842.19;5489844;26;20319;-81
2024/04/22 01:40:31;;;;;;;4.37;4.07;;;;;;;7.06;100.00;100840.31;5488789;26;20306;-81
2024/04/22 01:42:57;;;;;;;4.53;4.13;;;;;;;7.04;100.00;100837.00;5488301;26;20318;-82
2024/04/22 01:45:22;;;;;;;4.40;4.10;;;;;;;7.02;100.00;100837.22;5488744;26;20318;-81
2024/04/22 01:47:47;;;;;;;4.57;4.17;;;;;;;7.02;100.00;100836.38;5489411;26;20326;-82
2024/04/22 01:50:12;;;;;;;4.60;4.20;;;;;;;7.00;100.00;100835.78;5488639;26;20343;-81
2024/04/22 01:52:38;;;;;;;4.93;3.97;;;;;;;6.99;100.00;100831.41;5465076;26;20834;-81
2024/04/22 01:55:03;;;;;;;5.07;4.67;;;;;;;6.97;100.00;100834.34;5473825;26;20417;-82
2024/04/22 01:57:29;;;;;;;4.33;4.03;;;;;;;6.97;100.00;100836.22;5473873;26;20355;-81
2024/04/22 01:59:54;;;;;;;5.83;4.07;;;;;;;6.99;100.00;100836.81;5489071;26;20350;-81
2024/04/22 02:02:19;;;;;;;4.87;4.47;;;;;;;6.97;100.00;100837.03;5487413;26;20326;-81
2024/04/22 02:04:44;;;;;;;5.90;4.50;;;;;;;6.96;100.00;100834.53;5480885;26;20404;-81
2024/04/22 02:07:10;;;;;;;4.93;4.50;;;;;;;6.90;100.00;100830.84;5488263;26;20797;-82
2024/04/22 02:09:35;;;;;;;5.07;4.67;;;;;;;6.89;100.00;100829.19;5488981;26;20326;-81
2024/04/22 02:12:00;;;;;;;4.80;4.33;;;;;;;6.90;100.00;100832.69;5487729;26;20330;-81
2024/04/22 02:14:27;;;;;;;5.73;4.40;;;;;;;6.90;100.00;100830.84;5488097;26;20850;-81
2024/04/22 02:16:52;;;;;;;7.63;5.03;;;;;;;6.90;100.00;100832.69;5488124;26;20330;-81
2024/04/22 02:19:18;;;;;;;4.67;4.27;;;;;;;6.86;100.00;100832.28;5489267;26;20450;-82
2024/04/22 02:21:43;;;;;;;5.17;4.63;;;;;;;6.84;100.00;100839.78;5485880;26;20318;-82
2024/04/22 02:24:08;;;;;;;5.07;4.57;;;;;;;6.83;100.00;100829.19;5487957;26;20849;-81
2024/04/22 02:26:33;;;;;;;5.00;4.20;;;;;;;6.79;100.00;100829.63;5487967;26;20307;-81
2024/04/22 02:28:58;;;;;;;5.10;4.40;;;;;;;6.79;100.00;100837.69;5487849;26;20414;-81
2024/04/22 02:31:24;;;;;;;4.80;4.37;;;;;;;6.78;100.00;100833.34;5486572;26;20307;-81
2024/04/22 02:33:49;;;;;;;6.63;5.13;;;;;;;6.77;100.00;100839.78;5480036;26;20668;-81
2024/04/22 02:36:14;;;;;;;5.37;4.90;;;;;;;6.76;100.00;100835.44;5469839;26;20327;-81
2024/04/22 02:38:40;;;;;;;5.07;4.67;;;;;;;6.77;100.00;100839.78;5487540;26;20355;-81
2024/04/22 02:41:05;;;;;;;4.70;4.30;;;;;;;6.77;100.00;100837.09;5488139;26;20318;-80
2024/04/22 02:43:30;;;;;;;5.05;4.55;;;;;;;6.73;100.00;100838.53;5485782;26;20373;-81
2024/04/22 02:45:56;;;;;;;6.20;4.43;;;;;;;6.71;100.00;100843.31;5486301;26;20358;-81
2024/04/22 02:48:21;;;;;;;4.40;4.00;;;;;;;6.70;100.00;100841.66;5478116;26;20326;-81
2024/04/22 02:50:46;;;;;;;5.00;4.60;;;;;;;6.69;100.00;100842.69;5489692;26;20314;-81
2024/04/22 02:53:12;;;;;;;5.03;4.53;;;;;;;6.70;100.00;100844.34;5490872;26;20350;-81
2024/04/22 02:55:37;;;;;;;4.30;3.90;;;;;;;6.66;100.00;100843.13;5489281;26;20318;-81
2024/04/22 02:58:03;;;;;;;5.23;4.83;;;;;;;6.64;100.00;100838.97;5491270;26;20813;-81
2024/04/22 03:00:28;;;;;;;5.50;4.70;;;;;;;6.61;100.00;100839.41;5490716;26;20412;-81
2024/04/22 03:02:54;;;;;;;4.57;4.17;;;;;;;6.59;100.00;100833.38;5491561;25;20870;-81
2024/04/22 03:05:19;;;;;;;4.70;4.37;;;;;;;6.52;100.00;100828.00;5490926;26;20310;-81
2024/04/22 03:07:44;;;;;;;5.53;4.67;;;;;;;6.53;100.00;100834.22;5490802;26;20329;-81
2024/04/22 03:10:10;;;;;;;4.72;4.10;;;;;;;6.50;100.00;100826.56;5487142;26;20322;-81
2024/04/22 03:12:35;;;;;;;6.00;4.77;;;;;;;6.47;100.00;100825.13;5458240;26;20312;-81
2024/04/22 03:15:01;;;;;;;4.97;3.90;;;;;;;6.50;100.00;100832.78;5489753;26;20358;-81
2024/04/22 03:17:26;;;;;;;5.27;4.73;;;;;;;6.50;100.00;100826.56;5490187;26;20342;-81
2024/04/22 03:19:52;;;;;;;5.30;4.80;;;;;;;6.47;100.00;100825.13;5479348;26;20357;-81
2024/04/22 03:22:18;;;;;;;5.68;4.22;;;;;;;6.45;100.00;100827.22;5484178;26;20318;-81
2024/04/22 03:24:44;;;;;;;5.13;4.22;;;;;;;6.47;100.00;100829.69;5464310;26;20360;-81
2024/04/22 03:27:09;;;;;;;5.40;4.63;;;;;;;6.45;100.00;100834.47;5481747;26;20423;-81
2024/04/22 03:29:34;;;;;;;7.13;4.20;;;;;;;6.38;100.00;100825.56;5490378;26;20377;-81
2024/04/22 03:32:00;;;;;;;4.95;4.32;;;;;;;6.36;100.00;100827.59;5491311;26;20940;-81
2024/04/22 03:34:25;;;;;;;5.53;4.43;;;;;;;6.34;100.00;100818.94;5465228;26;20445;-81
2024/04/22 03:36:50;;;;;;;4.90;4.50;;;;;;;6.26;100.00;100822.66;5490625;26;20347;-81
2024/04/22 03:39:15;;;;;;;5.90;4.50;;;;;;;6.21;100.00;100819.75;5490411;26;20834;-81
2024/04/22 03:41:41;;;;;;;8.63;4.67;;;;;;;6.20;100.00;100827.00;5489024;26;20310;-81
2024/04/22 03:44:06;;;;;;;5.73;4.33;;;;;;;6.17;100.00;100818.53;5466871;26;20353;-81
2024/04/22 03:51:59;;;;;;;5.72;5.20;;;;;;;6.02;100.00;100824.13;5479211;26;20345;-81
2024/04/22 03:54:24;;;;;;;5.57;5.07;;;;;;;5.92;100.00;100823.69;5490160;26;20314;-81
2024/04/22 03:56:49;;;;;;;8.00;5.17;;;;;;;5.93;100.00;100827.22;5462637;26;20411;-81
2024/04/22 03:59:15;;;;;;;5.47;4.63;;;;;;;5.92;100.00;100833.63;5491342;26;20948;-81
2024/04/22 04:01:40;;;;;;;7.30;5.30;;;;;;;5.90;100.00;100833.81;5459889;25;20317;-81
2024/04/22 04:04:05;;;;;;;6.10;5.30;;;;;;;5.88;100.00;100835.91;5466322;26;20638;-82
2024/04/22 04:06:30;;;;;;;8.03;5.93;;;;;;;5.86;100.00;100834.44;5484104;26;20314;-80
2024/04/22 04:08:56;;;;;;;6.97;5.13;;;;;;;5.79;100.00;100837.09;5480855;26;20330;-81
2024/04/22 04:11:23;;;;;;;6.85;5.82;;;;;;;5.73;100.00;100841.41;5479947;26;20686;-81
2024/04/22 04:13:48;;;;;;;5.80;5.20;;;;;;;5.66;100.00;100842.44;5478936;26;20317;-80
2024/04/22 04:16:14;;;;;;;6.03;5.10;;;;;;;5.58;100.00;100840.78;5468004;26;20307;-81
2024/04/22 04:18:39;;;;;;;6.23;5.17;;;;;;;5.60;100.00;100844.06;5489535;26;20686;-81
2024/04/22 04:21:05;;;;;;;8.70;6.37;;;;;;;5.56;100.00;100836.63;5489708;26;20319;-81
2024/04/22 04:23:32;;;;;;;6.43;5.80;;;;;;;5.58;100.00;100838.09;5483194;26;20425;-81
2024/04/22 04:25:57;;;;;;;7.40;5.28;;;;;;;5.60;100.00;100837.88;5487539;26;20338;-81
2024/04/22 04:28:23;;;;;;;5.80;5.27;;;;;;;5.61;100.00;100834.16;5489880;26;20482;-81
2024/04/22 04:30:58;;;;;;;5.30;4.90;;;;;;;5.61;100.00;100834.97;5489744;26;20657;-81
2024/04/22 04:33:24;;;;;;;5.90;5.03;;;;;;;5.61;100.00;100839.53;5460649;26;20575;-80
2024/04/22 04:36:03;;;;;;;6.47;5.22;;;;;;;5.54;100.00;100833.31;5489792;26;20314;-81
2024/04/22 04:38:30;;;;;;;5.77;5.27;;;;;;;5.52;100.00;100844.28;5489088;26;20325;-80
2024/04/22 04:40:55;;;;;;;6.20;5.68;;;;;;;5.51;100.00;100839.09;5490767;26;20809;-81
2024/04/22 04:43:21;;;;;;;6.53;4.97;;;;;;;5.52;100.00;100835.38;5485226;26;20378;-81
2024/04/22 04:45:46;;;;;;;5.15;4.53;;;;;;;5.54;100.00;100846.75;5481202;26;20318;-81
2024/04/22 04:48:12;;;;;;;5.53;5.00;;;;;;;5.49;100.00;100850.06;5452235;26;20827;-75
2024/04/22 04:50:38;;;;;;;6.70;4.67;;;;;;;5.49;100.00;100849.22;5489476;26;20351;-79
2024/04/22 04:53:03;;;;;;;6.25;5.13;;;;;;;5.52;100.00;100846.13;5479012;26;20358;-80
2024/04/22 04:55:29;;;;;;;5.83;4.83;;;;;;;5.52;100.00;100846.97;5479138;26;20318;-79
2024/04/22 04:57:54;;;;;;;7.40;4.87;;;;;;;5.49;100.00;100851.91;5475200;26;20318;-81
2024/04/22 05:00:19;;;;;;;6.87;4.77;;;;;;;5.47;100.00;100853.94;5486509;26;20812;-80
2024/04/22 05:02:44;;;;;;;6.63;4.70;;;;;;;5.49;100.00;100860.81;5489417;26;20304;-82
2024/04/22 05:05:10;;;;;;;5.25;4.75;;;;;;;5.53;100.00;100853.19;5463555;26;20356;-81
2024/04/22 05:07:36;;;;;;;6.50;4.68;;;;;;;5.50;100.00;100857.06;5479742;26;20327;-78
2024/04/22 05:10:01;;;;;;;5.73;4.90;;;;;;;5.49;100.00;100858.13;5458587;26;20715;-82
2024/04/22 05:12:26;;;;;;;5.33;4.83;;;;;;;5.48;100.00;100855.63;5450937;26;20324;-82
2024/04/22 05:14:51;;;;;;;6.20;5.18;;;;;;;5.52;100.00;100865.78;5470321;26;20314;-84
2024/04/22 05:17:17;;;;;;;6.70;5.27;;;;;;;5.54;100.00;100871.78;5475574;26;20347;-80
2024/04/22 05:19:42;;;;;;;5.43;4.72;;;;;;;5.52;100.00;100867.63;5450820;26;20361;-79
2024/04/22 05:22:07;;;;;;;5.63;4.47;;;;;;;5.52;100.00;100852.34;5475944;26;20320;-79
2024/04/22 05:24:33;;;;;;;5.50;4.90;;;;;;;5.56;100.00;100867.03;5482889;25;20319;-81
2024/04/22 05:26:58;;;;;;;7.23;4.80;;;;;;;5.55;100.00;100876.13;5483433;26;20347;-77
2024/04/22 05:29:24;;;;;;;7.10;4.37;;;;;;;5.59;100.00;100873.88;5465970;26;20380;-75
2024/04/22 05:31:49;;;;;;;5.33;4.77;;;;;;;5.59;100.00;100871.19;5465838;26;20321;-81
2024/04/22 05:36:59;;;;;;;7.53;4.68;;;;;;;5.55;100.00;100875.28;5479589;26;20349;-80
2024/04/22 05:39:25;;;;;;;6.73;4.50;;;;;;;5.55;100.00;100873.44;5466460;26;20710;-79
2024/04/22 05:41:50;;;;;;;6.83;5.57;;;;;;;5.57;100.00;100882.13;5472173;26;20340;-79
2024/04/22 05:44:16;;;;;;;8.10;4.95;;;;;;;5.61;100.00;100875.31;5485109;26;20319;-81
2024/04/22 05:46:43;;;;;;;4.85;4.45;;;;;;;5.63;100.00;100878.63;5482122;26;20650;-80
2024/04/22 05:49:08;;;;;;;5.30;4.50;;;;;;;5.65;100.00;100867.66;5467462;26;20333;-80
2024/04/22 05:51:33;;;;;;;5.37;4.43;;;;;;;5.65;100.00;100875.75;5473402;26;20688;-79
2024/04/22 05:53:58;;;;;;;5.77;4.37;;;;;;;5.66;100.00;100888.16;5470671;26;20350;-79
2024/04/22 05:56:24;;;;;;;6.28;5.00;;;;;;;5.65;100.00;100881.13;5475864;26;20317;-80
2024/04/22 05:58:50;;;;;;;6.83;4.70;;;;;;;5.64;100.00;100884.81;5467941;26;20681;-82
2024/04/22 06:01:15;;;;;;;5.47;4.97;;;;;;;5.68;100.00;100886.91;5478886;26;20314;-81
2024/04/22 06:03:40;;;;;;;6.57;4.77;;;;;;;5.67;100.00;100892.47;5475932;26;20717;-80
2024/04/22 06:06:05;;;;;;;6.30;4.80;;;;;;;5.63;100.00;100891.25;5485438;26;20346;-80
2024/04/22 06:08:31;;;;;;;6.70;4.23;;;;;;;5.65;100.00;100898.09;5484795;26;20678;-80
2024/04/22 06:10:56;;;;;;;4.80;4.30;;;;;;;5.70;100.00;100887.53;5480358;26;20320;-79
2024/04/22 06:13:21;;;;;;;5.40;4.90;;;;;;;5.74;100.00;100891.47;5473759;26;20325;-79
2024/04/22 06:15:46;;;;;;;5.57;4.63;;;;;;;5.76;100.00;100886.72;5449108;26;20325;-79
2024/04/22 06:18:12;;;;;;;6.80;4.23;;;;;;;5.80;100.00;100892.53;5452072;26;20388;-79
2024/04/22 06:20:37;;;;;;;5.10;4.18;;;;;;;5.84;100.00;100896.47;5457636;26;20323;-79
2024/04/22 06:23:03;;;;;;;4.70;4.30;;;;;;;5.86;100.00;100890.94;5456531;26;20345;-80
2024/04/22 06:25:28;;;;;;;4.83;4.33;;;;;;;5.88;100.00;100895.06;5488104;25;20337;-79
2024/04/22 06:27:53;;;;;;;4.22;3.50;;;;;;;5.90;100.00;100898.38;5466977;26;20809;-79
2024/04/22 06:30:18;;;;;;;5.03;4.00;;;;;;;5.93;100.00;100894.47;5472862;26;20324;-79
2024/04/22 06:32:44;;;;;;;7.68;4.05;;;;;;;5.96;100.00;100896.75;5479008;26;20393;-80
2024/04/22 06:35:09;;;;;;;6.50;4.30;;;;;;;5.99;100.00;100896.34;5477809;26;20686;-79
2024/04/22 06:37:34;;;;;;;6.68;3.88;;;;;;;5.99;100.00;100897.19;5475457;26;20306;-80
2024/04/22 06:40:00;;;;;;;4.73;4.13;;;;;;;6.04;100.00;100893.84;5479072;26;20359;-79
2024/04/22 06:42:25;;;;;;;4.07;3.63;;;;;;;6.09;100.00;100894.09;5477325;26;20313;-79
2024/04/22 06:44:50;;;;;;;5.13;3.60;;;;;;;6.11;100.00;100898.22;5482475;26;20868;-78
2024/04/22 06:47:16;;;;;;;3.93;3.43;;;;;;;6.12;100.00;100899.88;5473388;26;20314;-78
2024/04/22 06:49:41;;;;;;;3.90;3.17;;;;;;;6.12;100.00;100899.88;5477803;26;20318;-78
2024/04/22 06:52:06;;;;;;;6.13;3.33;;;;;;;6.11;100.00;100900.91;5489585;26;20365;-79
2024/04/22 06:54:32;;;;;;;4.00;3.40;;;;;;;6.13;100.00;100893.44;5491436;26;20318;-79
2024/04/22 06:56:57;;;;;;;4.03;3.72;;;;;;;6.20;100.00;100898.84;5487388;26;20326;-79
2024/04/22 06:59:22;;;;;;;5.10;3.60;;;;;;;6.23;100.00;100893.88;5491147;26;20400;-80
2024/04/22 07:01:48;;;;;;;4.13;3.23;;;;;;;6.28;100.00;100890.56;5481023;26;20816;-79
2024/04/22 07:04:13;;;;;;;5.47;3.90;;;;;;;6.26;100.00;100890.75;5462154;26;20340;-80
2024/04/22 07:06:38;;;;;;;8.37;3.80;;;;;;;6.27;100.00;100888.91;5480981;26;20343;-80
2024/04/22 07:09:09;;;;;;;5.07;4.30;;;;;;;6.28;100.00;100884.34;5472940;26;20318;-79
2024/04/22 07:11:35;;;;;;;3.47;3.17;;;;;;;6.31;100.00;100886.63;5489211;26;20314;-80
2024/04/22 07:14:01;;;;;;;8.25;3.92;;;;;;;6.32;100.00;100885.59;5488993;26;20701;-79
2024/04/22 07:16:27;;;;;;;4.00;3.70;;;;;;;6.32;100.00;100882.91;5488352;26;20310;-80
2024/04/22 07:18:52;;;;;;;3.50;3.20;;;;;;;6.38;100.00;100882.91;5489022;26;20865;-79
2024/04/22 07:21:18;;;;;;;5.93;3.67;;;;;;;6.43;100.00;100880.41;5466258;26;20509;-79
2024/04/22 07:23:43;;;;;;;5.50;3.22;;;;;;;6.45;100.00;100880.22;5478900;26;20650;-80
2024/04/22 07:26:08;;;;;;;4.07;3.60;;;;;;;6.50;100.00;100880.41;5491889;26;20352;-80
2024/04/22 07:28:34;;;;;;;5.40;3.42;;;;;;;6.51;100.00;100891.00;5488844;26;20415;-81
2024/04/22 07:30:59;;;;;;;4.77;3.13;;;;;;;6.55;100.00;100883.31;5488787;26;20307;-80
2024/04/22 07:33:25;;;;;;;4.50;3.20;;;;;;;6.56;100.00;100880.41;5489596;26;20389;-80
2024/04/22 07:35:55;;;;;;;4.10;3.53;;;;;;;6.58;100.00;100882.91;5491108;26;20310;-80
2024/04/22 07:38:25;;;;;;;3.63;3.33;;;;;;;6.62;100.00;100881.44;5464949;26;20318;-79
2024/04/22 07:40:51;;;;;;;3.83;3.53;;;;;;;6.62;100.00;100887.66;5467330;26;20313;-80
2024/04/22 07:43:16;;;;;;;3.70;3.40;;;;;;;6.68;100.00;100886.00;5449245;26;20388;-79
2024/04/22 07:45:42;;;;;;;4.20;3.45;;;;;;;6.71;100.00;100885.59;5477647;26;20362;-80
2024/04/22 07:48:09;;;;;;;11.27;4.10;;;;;;;6.74;100.00;100883.31;5478689;25;20363;-79
2024/04/22 07:50:34;;;;;;;3.83;3.53;;;;;;;6.78;100.00;100876.44;5487648;26;20314;-80
2024/04/22 07:53:00;;;;;;;4.23;3.57;;;;;;;6.83;100.00;100877.69;5489190;26;20365;-79
2024/04/22 07:55:25;;;;;;;4.83;3.67;;;;;;;6.83;100.00;100875.81;5485884;26;20341;-79
2024/04/22 07:57:52;;;;;;;4.17;3.80;;;;;;;6.90;100.00;100876.63;5484494;26;20520;-79
2024/04/22 08:00:19;;;;;;;3.60;3.30;;;;;;;6.92;100.00;100877.25;5461748;26;20328;-80
2024/04/22 08:02:44;;;;;;;3.20;3.00;;;;;;;6.97;100.00;100873.94;5465853;26;20667;-79
2024/04/22 08:05:10;;;;;;;4.80;3.75;;;;;;;6.99;100.00;100878.06;5472032;26;20325;-79
2024/04/22 08:07:39;;;;;;;3.90;3.60;;;;;;;7.02;100.00;100876.81;5489117;26;20312;-79
2024/04/22 08:10:04;;;;;;;3.47;3.17;;;;;;;7.09;100.00;100881.16;5489847;26;20412;-79
2024/04/22 08:12:30;;;;;;;3.95;3.53;;;;;;;7.17;100.00;100888.19;5473996;26;20309;-79
2024/04/22 08:14:55;;;;;;;3.50;3.27;;;;;;;7.21;100.00;100876.75;5468856;26;20333;-79
2024/04/22 08:17:20;;;;;;;3.30;3.10;;;;;;;7.26;100.00;100873.41;5486754;26;20315;-79
2024/04/22 08:19:46;;;;;;;3.17;2.93;;;;;;;7.28;100.00;100871.31;5470528;26;20358;-79
2024/04/22 08:22:15;;;;;;;3.13;2.90;;;;;;;7.32;100.00;100869.88;5474406;26;20310;-79
2024/04/22 08:24:40;;;;;;;3.05;2.88;;;;;;;7.31;100.00;100874.44;5478285;26;20750;-79
2024/04/22 08:27:07;;;;;;;3.30;3.00;;;;;;;7.36;100.00;100879.19;5488223;26;20349;-79
2024/04/22 08:29:33;;;;;;;3.78;3.20;;;;;;;7.46;100.00;100876.03;5466690;26;20342;-79
2024/04/22 08:31:58;;;;;;;3.87;3.10;;;;;;;7.58;100.00;100877.00;5473195;26;20752;-79
2024/04/22 08:34:23;;;;;;;3.47;3.10;;;;;;;7.67;100.00;100870.34;5481717;26;20317;-79
2024/04/22 08:36:48;;;;;;;3.33;2.80;;;;;;;7.71;100.00;100882.31;5469280;26;20320;-78
2024/04/22 08:39:14;;;;;;;3.30;3.00;;;;;;;7.77;100.00;100876.09;5489585;25;20365;-79
2024/04/22 08:41:39;;;;;;;3.10;2.90;;;;;;;7.77;100.00;100876.09;5489368;26;20333;-79
2024/04/22 08:44:04;;;;;;;5.33;2.80;;;;;;;7.89;100.00;100878.91;5489673;26;20388;-79
2024/04/22 08:46:30;;;;;;;5.20;2.40;;;;;;;7.96;100.00;100875.13;5480447;26;20315;-79
2024/04/22 08:48:55;;;;;;;4.10;3.30;;;;;;;8.09;100.00;100875.06;5471840;26;20323;-79
2024/04/22 08:51:22;;;;;;;4.20;3.35;;;;;;;8.35;100.00;100876.75;5484751;26;20360;-81
2024/04/22 08:53:47;;;;;;;3.72;3.10;;;;;;;8.52;100.00;100877.03;5485544;26;20840;-80
2024/04/22 08:56:12;;;;;;;5.20;3.00;;;;;;;8.71;100.00;100879.53;5474696;26;20313;-80
2024/04/22 08:58:38;;;;;;;3.23;2.90;;;;;;;8.85;100.00;100877.53;5485601;26;20665;-79
2024/04/22 09:01:06;;;;;;;2.80;2.60;;;;;;;9.05;100.00;100874.63;5485966;26;20326;-79
2024/04/22 09:03:32;;;;;;;2.72;2.53;;;;;;;9.10;100.00;100878.31;5473826;26;20317;-79
2024/04/22 09:05:57;;;;;;;3.80;2.50;;;;;;;9.01;100.00;100868.84;5477432;26;20326;-79
2024/04/22 09:08:22;;;;;;;3.20;2.63;;;;;;;9.23;100.00;100867.34;5489475;26;20314;-78
2024/04/22 09:10:58;;;;;;;2.72;2.60;;;;;;;9.12;100.00;100861.88;5466897;26;20344;-77
2024/04/22 09:13:23;;;;;;;2.35;2.13;;;;;;;9.14;100.00;100866.00;5454959;26;20329;-79
2024/04/22 09:15:55;;;;;;;4.20;2.50;;;;;;;9.70;100.00;100871.13;5464105;26;20317;-78
2024/04/22 09:18:25;;;;;;;2.25;2.15;;;;;;;9.98;100.00;100854.25;5469955;26;20823;-79
2024/04/22 09:20:50;;;;;;;2.80;2.30;;;;;;;10.24;100.00;100864.69;5471235;26;20326;-79
2024/04/22 09:23:18;;;;;;;2.27;2.17;;;;;;;9.89;100.00;100864.59;5457888;25;20412;-79
2024/04/22 09:25:44;;;;;;;2.47;2.28;;;;;;;10.02;100.00;100866.28;5471820;26;20821;-78
2024/04/22 09:28:10;;;;;;;2.70;2.03;;;;;;;10.54;100.00;100859.22;5466168;26;20325;-78
2024/04/22 09:30:40;;;;;;;2.70;2.40;;;;;;;10.72;100.00;100861.81;5486506;26;20327;-79
2024/04/22 09:33:08;;;;;;;2.15;2.05;;;;;;;11.09;100.00;100856.97;5463381;26;20970;-78
2024/04/22 09:35:35;;;;;;;3.30;2.20;;;;;;;11.16;100.00;100854.94;5479223;26;20338;-78
2024/04/22 09:38:01;;;;;;;3.30;2.30;;;;;;;11.09;100.00;100853.41;5466647;26;20418;-79
2024/04/22 09:40:27;;;;;;;2.47;2.20;;;;;;;11.46;100.00;100852.84;5465495;26;20374;-79
2024/04/22 09:42:53;;;;;;;3.20;2.20;;;;;;;11.54;100.00;100848.09;5473252;26;20313;-76
2024/04/22 09:45:19;;;;;;;2.67;1.90;;;;;;;11.86;100.00;100832.97;5459640;26;20333;-79
2024/04/22 09:47:45;;;;;;;2.50;2.30;;;;;;;12.15;100.00;100836.50;5480352;26;20352;-78
2024/04/22 09:50:11;;;;;;;2.08;1.98;;;;;;;12.41;97.29;100844.00;5480656;26;20778;-79
2024/04/22 09:52:38;;;;;;;3.03;2.00;;;;;;;12.40;95.00;100828.75;5450991;26;20340;-79
2024/04/22 09:55:05;;;;;;;3.30;2.20;;;;;;;12.23;90.05;100841.50;5461814;26;20370;-80
2024/04/22 09:57:34;;;;;;;1.70;1.67;;;;;;;12.29;91.13;100829.66;5477782;26;20910;-79
2024/04/22 10:00:01;;;;;;;2.90;1.95;;;;;;;13.02;90.67;100843.00;5488360;26;20310;-80
2024/04/22 10:02:27;;;;;;;4.38;1.90;;;;;;;12.92;82.82;100834.69;5477194;26;20677;-80
2024/04/22 10:04:55;;;;;;;5.60;2.00;;;;;;;12.87;84.22;100838.19;5488264;26;20306;-80
2024/04/22 10:07:21;;;;;;;3.00;2.03;;;;;;;13.40;87.30;100828.56;5489011;26;20884;-79
2024/04/22 10:09:50;;;;;;;1.95;1.77;;;;;;;13.65;75.32;100828.84;5480467;26;20348;-80
2024/04/22 10:12:26;;;;;;;4.97;2.47;;;;;;;12.99;79.11;100832.63;5470657;26;20416;-79
2024/04/22 10:15:12;;;;;;;2.30;1.85;;;;;;;12.51;79.36;100827.03;5456858;26;20316;-79
2024/04/22 10:17:38;;;;;;;1.40;1.40;;;;;;;13.07;84.97;100825.94;5482248;25;20365;-78
2024/04/22 10:20:05;;;;;;;2.20;2.00;;;;;;;13.79;73.31;100823.81;5455476;26;20349;-78
2024/04/22 10:22:33;;;;;;;2.33;1.67;;;;;;;13.11;73.19;100818.91;5463728;26;20321;-78
2024/04/22 10:25:02;;;;;;;2.08;1.90;;;;;;;12.70;76.75;100822.97;5482373;26;20428;-79
2024/04/22 10:27:28;;;;;;;2.25;1.90;;;;;;;12.45;74.97;100821.50;5460226;26;20364;-77
2024/04/22 10:29:53;;;;;;;2.30;1.70;;;;;;;12.11;75.79;100811.72;5468198;26;20311;-78
2024/04/22 10:32:18;;;;;;;2.63;1.55;;;;;;;11.80;77.55;100806.81;5480135;26;20391;-80
2024/04/22 10:34:44;;;;;;;1.73;1.63;;;;;;;12.82;77.25;100819.06;5466283;26;20684;-80
2024/04/22 10:37:10;;;;;;;2.07;1.53;;;;;;;13.23;70.26;100815.00;5475091;26;20367;-78
2024/04/22 10:39:36;;;;;;;3.43;1.90;;;;;;;12.77;69.11;100818.16;5474940;26;20334;-78
2024/04/22 10:42:01;;;;;;;3.00;1.80;;;;;;;12.26;73.51;100811.97;5474306;26;20327;-79
2024/04/22 10:44:27;;;;;;;4.50;3.73;;;;;;;11.87;73.17;100815.63;5485973;26;20354;-78
2024/04/22 10:46:53;;;;;;;5.67;2.90;;;;;;;11.45;77.52;100826.78;5466088;25;20312;-78
2024/04/22 10:49:18;;;;;;;4.07;2.65;;;;;;;11.18;82.22;100825.69;5467924;26;20724;-78
2024/04/22 10:51:44;;;;;;;4.37;3.00;;;;;;;10.86;87.92;100828.00;5468298;26;20317;-79
2024/04/22 10:54:09;;;;;;;2.97;2.78;;;;;;;10.72;91.73;100820.31;5448538;26;20633;-79
2024/04/22 10:56:34;;;;;;;2.47;2.37;;;;;;;10.60;94.24;100825.78;5456535;26;20328;-79
2024/04/22 10:59:00;;;;;;;2.40;2.30;;;;;;;10.51;96.35;100826.31;5475158;26;20313;-79
2024/04/22 11:01:25;;;;;;;2.63;2.43;;;;;;;10.63;97.16;100830.72;5464463;25;20319;-79
2024/04/22 11:03:51;;;;;;;3.45;2.30;;;;;;;10.69;96.52;100821.63;5485451;26;20442;-79
2024/04/22 11:06:16;;;;;;;2.58;2.38;;;;;;;11.46;97.77;100812.13;5469881;26;20336;-79
2024/04/22 11:08:42;;;;;;;2.43;2.20;;;;;;;13.66;83.30;100818.75;5462397;26;20697;-78
2024/04/22 11:11:10;;;;;;;2.37;2.20;;;;;;;13.64;73.75;100820.91;5484908;26;20314;-79
2024/04/22 11:13:37;;;;;;;3.00;2.53;;;;;;;12.93;76.04;100822.75;5461850;26;20361;-79
2024/04/22 11:16:09;;;;;;;2.42;2.33;;;;;;;12.28;79.71;100819.88;5473373;26;20321;-78
2024/04/22 11:18:35;;;;;;;2.50;2.30;;;;;;;11.75;81.26;100818.44;5461661;26;20403;-79
2024/04/22 11:21:00;;;;;;;3.10;2.58;;;;;;;11.42;82.84;100826.44;5475656;26;20318;-80
2024/04/22 11:23:26;;;;;;;2.67;2.47;;;;;;;11.18;85.70;100831.09;5484529;26;20347;-79
2024/04/22 11:25:51;;;;;;;2.67;2.30;;;;;;;11.06;87.13;100830.31;5489656;26;20330;-79
2024/04/22 11:28:18;;;;;;;2.20;2.00;;;;;;;10.99;86.37;100826.06;5489554;26;20314;-78
2024/04/22 11:30:43;;;;;;;2.88;2.28;;;;;;;10.96;87.44;100821.13;5476375;26;20341;-78